createdAt,value
2023-05-20T00:00:22.126Z,6.47
2023-05-20T00:02:50.963Z,6.38
2023-05-20T00:05:19.609Z,6.30
2023-05-20T00:07:48.082Z,6.82
2023-05-20T00:10:16.827Z,6.15
2023-05-20T00:12:47.004Z,6.18
2023-05-20T00:15:15.496Z,6.15
2023-05-20T00:17:44.109Z,6.70
2023-05-20T00:20:13.481Z,6.15
2023-05-20T00:22:42.093Z,6.05
2023-05-20T00:25:11.478Z,6.00
2023-05-20T00:27:40.262Z,6.68
2023-05-20T00:30:11.689Z,5.90
2023-05-20T00:32:40.272Z,5.80
2023-05-20T00:35:11.141Z,6.53
2023-05-20T00:37:40.588Z,6.28
2023-05-20T00:40:10.296Z,6.65
2023-05-20T00:42:38.673Z,6.47
2023-05-20T00:45:08.425Z,6.38
2023-05-20T00:47:40.270Z,6.60
2023-05-20T00:50:10.756Z,6.47
2023-05-20T00:52:41.822Z,6.35
2023-05-20T00:55:10.955Z,6.07
2023-05-20T00:57:40.359Z,6.40
2023-05-20T01:00:12.095Z,6.80
2023-05-20T01:02:43.691Z,5.95
2023-05-20T01:05:12.585Z,6.65
2023-05-20T01:07:42.781Z,7.13
2023-05-20T01:10:12.596Z,6.43
2023-05-20T01:12:44.298Z,6.55
2023-05-20T01:15:15.385Z,6.57
2023-05-20T01:17:48.304Z,6.28
2023-05-20T01:20:17.139Z,6.35
2023-05-20T01:22:51.299Z,7.03
2023-05-20T01:25:20.015Z,6.90
2023-05-20T01:27:49.407Z,6.93
2023-05-20T01:30:18.616Z,6.78
2023-05-20T01:32:52.218Z,7.10
2023-05-20T01:35:25.156Z,7.45
2023-05-20T01:37:57.461Z,7.07
2023-05-20T01:40:28.087Z,7.00
2023-05-20T01:42:57.706Z,6.70
2023-05-20T01:45:27.586Z,6.47
2023-05-20T01:47:56.765Z,7.35
2023-05-20T01:50:26.726Z,6.82
2023-05-20T01:52:57.421Z,7.20
2023-05-20T01:55:26.449Z,7.93
2023-05-20T01:57:55.092Z,8.60
2023-05-20T02:00:23.684Z,7.90
2023-05-20T02:02:52.321Z,7.63
2023-05-20T02:05:21.073Z,7.47
2023-05-20T02:07:49.502Z,7.13
2023-05-20T02:10:19.834Z,7.00
2023-05-20T02:12:49.578Z,7.32
2023-05-20T02:15:18.384Z,7.25
2023-05-20T02:17:48.561Z,7.53
2023-05-20T02:20:17.583Z,7.47
2023-05-20T02:22:46.278Z,7.40
2023-05-20T02:25:15.118Z,6.80
2023-05-20T02:27:45.595Z,7.03
2023-05-20T02:30:14.634Z,7.40
2023-05-20T02:32:43.575Z,6.95
2023-05-20T02:35:12.047Z,7.47
2023-05-20T02:37:42.115Z,7.38
2023-05-20T02:40:11.298Z,7.15
2023-05-20T02:42:40.048Z,7.25
2023-05-20T02:45:11.321Z,6.93
2023-05-20T02:47:39.976Z,6.93
2023-05-20T02:50:09.703Z,7.18
2023-05-20T02:52:40.169Z,7.10
2023-05-20T02:55:09.711Z,7.00
2023-05-20T02:57:39.568Z,7.00
2023-05-20T03:00:12.258Z,6.53
2023-05-20T03:02:41.888Z,6.85
2023-05-20T03:05:11.418Z,6.25
2023-05-20T03:07:39.838Z,7.20
2023-05-20T03:10:11.035Z,7.10
2023-05-20T03:12:39.781Z,7.65
2023-05-20T03:15:11.221Z,6.53
2023-05-20T03:17:39.825Z,7.18
2023-05-20T03:20:12.911Z,7.05
2023-05-20T03:22:41.843Z,6.97
2023-05-20T03:25:11.296Z,6.97
2023-05-20T03:27:39.789Z,7.57
2023-05-20T03:30:11.526Z,7.40
2023-05-20T03:32:40.161Z,6.95
2023-05-20T03:35:10.766Z,6.85
2023-05-20T03:37:39.980Z,7.45
2023-05-20T03:40:10.639Z,7.20
2023-05-20T03:42:40.476Z,6.75
2023-05-20T03:45:13.072Z,7.70
2023-05-20T03:47:41.780Z,7.22
2023-05-20T03:50:10.917Z,7.18
2023-05-20T03:52:41.174Z,7.72
2023-05-20T03:55:10.487Z,7.97
2023-05-20T03:57:39.124Z,8.38
2023-05-20T04:00:12.293Z,7.10
2023-05-20T04:02:43.669Z,7.47
2023-05-20T04:05:12.531Z,7.22
2023-05-20T04:07:41.530Z,7.40
2023-05-20T04:10:11.668Z,7.72
2023-05-20T04:12:40.267Z,7.70
2023-05-20T04:15:10.695Z,7.15
2023-05-20T04:17:40.753Z,7.53
2023-05-20T04:20:11.614Z,7.90
2023-05-20T04:22:40.972Z,7.75
2023-05-20T04:25:10.718Z,7.60
2023-05-20T04:27:39.882Z,6.78
2023-05-20T04:30:10.480Z,7.40
2023-05-20T04:32:39.322Z,7.30
2023-05-20T04:35:12.197Z,6.80
2023-05-20T04:37:44.832Z,7.43
2023-05-20T04:40:14.951Z,7.97
2023-05-20T04:42:43.857Z,7.53
2023-05-20T04:45:13.824Z,7.35
2023-05-20T04:47:42.762Z,7.18
2023-05-20T04:50:12.509Z,7.18
2023-05-20T04:52:43.371Z,7.55
2023-05-20T04:55:12.886Z,6.78
2023-05-20T04:57:43.884Z,7.22
2023-05-20T05:00:14.194Z,6.70
2023-05-20T05:02:42.729Z,7.07
2023-05-20T05:05:11.454Z,7.60
2023-05-20T05:07:41.465Z,7.00
2023-05-20T05:10:10.953Z,7.07
2023-05-20T05:12:39.547Z,6.88
2023-05-20T05:15:10.546Z,6.28
2023-05-20T05:17:39.472Z,6.47
2023-05-20T05:20:10.066Z,6.28
2023-05-20T05:22:39.895Z,7.50
2023-05-20T05:25:12.024Z,6.50
2023-05-20T05:27:41.131Z,6.55
2023-05-20T05:30:11.052Z,7.78
2023-05-20T05:32:39.751Z,6.47
2023-05-20T05:35:09.246Z,6.50
2023-05-20T05:37:38.133Z,6.75
2023-05-20T05:40:09.273Z,6.75
2023-05-20T05:42:39.344Z,5.97
2023-05-20T05:45:09.305Z,6.07
2023-05-20T05:47:37.974Z,6.25
2023-05-20T05:50:07.191Z,5.90
2023-05-20T05:52:35.976Z,6.20
2023-05-20T05:55:05.111Z,6.13
2023-05-20T05:57:34.021Z,6.43
2023-05-20T06:00:04.873Z,5.85
2023-05-20T06:02:36.748Z,5.60
2023-05-20T06:05:05.937Z,5.78
2023-05-20T06:07:34.616Z,6.00
2023-05-20T06:10:03.111Z,5.63
2023-05-20T06:12:32.388Z,5.75
2023-05-20T06:15:01.259Z,5.90
2023-05-20T06:17:31.460Z,5.68
2023-05-20T06:20:00.960Z,5.75
2023-05-20T06:22:31.376Z,5.80
2023-05-20T06:25:02.577Z,5.82
2023-05-20T06:27:31.197Z,5.57
2023-05-20T06:29:59.797Z,6.00
2023-05-20T06:32:28.347Z,5.20
2023-05-20T06:34:58.276Z,5.70
2023-05-20T06:37:26.620Z,5.90
2023-05-20T06:39:55.362Z,5.63
2023-05-20T06:42:23.785Z,5.80
2023-05-20T06:44:52.734Z,6.10
2023-05-20T06:47:22.494Z,5.32
2023-05-20T06:49:51.023Z,5.53
2023-05-20T06:52:21.155Z,5.10
2023-05-20T06:54:49.720Z,5.05
2023-05-20T06:57:18.457Z,5.15
2023-05-20T06:59:47.011Z,5.32
2023-05-20T07:02:15.619Z,5.20
2023-05-20T07:04:44.015Z,5.15
2023-05-20T07:07:12.567Z,5.70
2023-05-20T07:09:42.580Z,5.25
2023-05-20T07:12:10.906Z,5.70
2023-05-20T07:14:39.454Z,5.63
2023-05-20T07:17:08.105Z,5.25
2023-05-20T07:19:36.413Z,5.47
2023-05-20T07:22:04.815Z,5.25
2023-05-20T07:24:33.862Z,5.32
2023-05-20T07:27:04.185Z,5.20
2023-05-20T07:29:33.143Z,5.60
2023-05-20T07:32:05.667Z,5.53
2023-05-20T07:34:37.099Z,5.85
2023-05-20T07:37:07.755Z,6.07
2023-05-20T07:39:38.444Z,5.70
2023-05-20T07:42:08.645Z,5.35
2023-05-20T07:44:37.253Z,5.28
2023-05-20T07:47:05.848Z,5.03
2023-05-20T07:49:35.032Z,5.45
2023-05-20T07:52:04.679Z,4.93
2023-05-20T07:54:33.690Z,5.22
2023-05-20T07:57:02.543Z,5.28
2023-05-20T07:59:32.465Z,5.30
2023-05-20T08:02:01.201Z,5.43
2023-05-20T08:04:31.033Z,5.40
2023-05-20T08:06:59.696Z,4.93
2023-05-20T08:09:29.140Z,5.40
2023-05-20T08:11:57.690Z,5.70
2023-05-20T08:14:26.237Z,5.30
2023-05-20T08:16:56.385Z,6.32
2023-05-20T08:19:25.000Z,5.07
2023-05-20T08:21:53.598Z,5.15
2023-05-20T08:24:22.370Z,5.35
2023-05-20T08:26:51.271Z,4.60
2023-05-20T08:29:20.120Z,4.85
2023-05-20T08:31:49.705Z,5.05
2023-05-20T08:34:20.188Z,4.95
2023-05-20T08:36:49.431Z,5.05
2023-05-20T08:39:18.100Z,5.30
2023-05-20T08:41:49.028Z,6.28
2023-05-20T08:44:20.679Z,9.65
2023-05-20T08:46:50.538Z,6.68
2023-05-20T08:49:21.379Z,5.25
2023-05-20T08:51:50.313Z,13.02
2023-05-20T08:54:21.282Z,5.88
2023-05-20T08:56:50.037Z,5.40
2023-05-20T08:59:20.525Z,4.90
2023-05-20T09:01:49.131Z,6.10
2023-05-20T09:04:17.812Z,5.25
2023-05-20T09:06:49.107Z,5.20
2023-05-20T09:09:17.805Z,5.20
2023-05-20T09:11:46.475Z,6.63
2023-05-20T09:14:14.993Z,22.02
2023-05-20T09:16:44.431Z,7.43
2023-05-20T09:19:13.417Z,5.30
2023-05-20T09:21:44.140Z,5.43
2023-05-20T09:24:14.193Z,5.18
2023-05-20T09:26:42.717Z,6.18
2023-05-20T09:29:11.133Z,5.78
2023-05-20T09:31:40.027Z,5.38
2023-05-20T09:34:08.549Z,5.38
2023-05-20T09:36:37.470Z,5.60
2023-05-20T09:39:06.626Z,5.47
2023-05-20T09:41:40.679Z,6.22
2023-05-20T09:44:10.608Z,5.30
2023-05-20T09:46:42.367Z,5.65
2023-05-20T09:49:11.599Z,5.43
2023-05-20T09:51:42.310Z,7.53
2023-05-20T09:54:13.515Z,5.38
2023-05-20T09:56:46.251Z,5.93
2023-05-20T09:59:17.557Z,6.32
2023-05-20T10:01:46.947Z,7.47
2023-05-20T10:04:18.101Z,6.05
2023-05-20T10:07:14.247Z,7.88
2023-05-20T10:09:59.074Z,6.00
2023-05-20T10:12:37.873Z,6.53
2023-05-20T10:15:19.207Z,6.03
2023-05-20T10:17:55.130Z,6.43
2023-05-20T10:20:24.276Z,6.35
2023-05-20T10:22:58.708Z,5.93
2023-05-20T10:25:29.704Z,6.18
2023-05-20T10:28:11.024Z,5.82
2023-05-20T10:30:41.661Z,6.30
2023-05-20T10:33:20.492Z,6.32
2023-05-20T10:35:51.995Z,6.00
2023-05-20T10:38:21.618Z,5.45
2023-05-20T10:40:50.215Z,6.18
2023-05-20T10:43:28.726Z,6.00
2023-05-20T10:45:58.511Z,5.97
2023-05-20T10:48:29.440Z,6.35
2023-05-20T10:50:58.766Z,6.18
2023-05-20T10:53:33.454Z,6.45
2023-05-20T10:56:03.205Z,5.72
2023-05-20T10:58:39.355Z,5.72
2023-05-20T11:01:08.240Z,6.25
2023-05-20T11:03:37.941Z,6.28
2023-05-20T11:06:15.348Z,6.25
2023-05-20T11:08:45.222Z,6.32
2023-05-20T11:11:15.154Z,5.32
2023-05-20T11:13:45.060Z,5.85
2023-05-20T11:16:13.750Z,6.13
2023-05-20T11:18:42.564Z,5.93
2023-05-20T11:21:11.320Z,6.13
2023-05-20T11:23:49.002Z,5.78
2023-05-20T11:26:23.652Z,6.68
2023-05-20T11:28:54.081Z,6.30
2023-05-20T11:31:23.082Z,6.55
2023-05-20T11:33:53.735Z,6.20
2023-05-20T11:36:27.791Z,6.95
2023-05-20T11:38:59.094Z,6.25
2023-05-20T11:41:30.999Z,5.82
2023-05-20T11:44:02.291Z,6.18
2023-05-20T11:46:30.766Z,6.25
2023-05-20T11:48:59.736Z,5.75
2023-05-20T11:51:29.807Z,7.50
2023-05-20T11:54:02.715Z,6.03
2023-05-20T11:56:32.363Z,6.20
2023-05-20T11:59:03.234Z,6.22
2023-05-20T12:01:34.059Z,6.35
2023-05-20T12:04:02.932Z,7.28
2023-05-20T12:06:31.835Z,5.97
2023-05-20T12:09:07.034Z,6.70
2023-05-20T12:11:36.904Z,6.68
2023-05-20T12:14:07.920Z,6.50
2023-05-20T12:16:37.657Z,6.68
2023-05-20T12:19:06.712Z,6.22
2023-05-20T12:21:35.188Z,6.85
2023-05-20T12:24:05.620Z,6.25
2023-05-20T12:26:35.651Z,6.15
2023-05-20T12:29:04.421Z,10.57
2023-05-20T12:31:35.143Z,6.38
2023-05-20T12:34:04.275Z,6.10
2023-05-20T12:36:33.991Z,6.10
2023-05-20T12:39:02.369Z,6.80
2023-05-20T12:41:31.200Z,5.50
2023-05-20T12:43:59.542Z,5.88
2023-05-20T12:46:28.800Z,6.05
2023-05-20T12:48:59.947Z,6.25
2023-05-20T12:51:28.889Z,5.70
2023-05-20T12:53:57.450Z,6.25
2023-05-20T12:56:26.636Z,6.57
2023-05-20T12:58:54.923Z,6.35
2023-05-20T13:01:23.477Z,6.07
2023-05-20T13:03:53.514Z,6.03
2023-05-20T13:06:23.526Z,6.68
2023-05-20T13:08:51.982Z,6.28
2023-05-20T13:11:21.987Z,5.90
2023-05-20T13:13:50.598Z,5.93
2023-05-20T13:16:19.965Z,5.55
2023-05-20T13:18:48.456Z,6.55
2023-05-20T13:21:17.427Z,6.25
2023-05-20T13:23:47.220Z,6.05
2023-05-20T13:26:17.110Z,6.22
2023-05-20T13:28:46.842Z,5.68
2023-05-20T13:31:15.240Z,7.13
2023-05-20T13:33:43.993Z,6.07
2023-05-20T13:36:12.960Z,5.97
2023-05-20T13:38:41.398Z,5.95
2023-05-20T13:41:11.492Z,5.88
2023-05-20T13:43:42.434Z,6.28
2023-05-20T13:46:11.013Z,6.43
2023-05-20T13:48:39.420Z,6.28
2023-05-20T13:51:07.946Z,5.97
2023-05-20T13:53:36.584Z,6.07
2023-05-20T13:56:05.642Z,5.28
2023-05-20T13:58:35.763Z,6.53
2023-05-20T14:01:05.494Z,5.78
2023-05-20T14:03:34.800Z,6.15
2023-05-20T14:06:03.373Z,6.50
2023-05-20T14:08:31.956Z,6.80
2023-05-20T14:11:00.408Z,6.15
2023-05-20T14:13:29.030Z,6.50
2023-05-20T14:15:59.473Z,6.03
2023-05-20T14:18:27.991Z,6.32
2023-05-20T14:20:56.780Z,5.80
2023-05-20T14:23:25.334Z,6.53
2023-05-20T14:25:53.650Z,6.18
2023-05-20T14:28:22.290Z,6.50
2023-05-20T14:30:50.868Z,6.45
2023-05-20T14:33:20.992Z,6.13
2023-05-20T14:35:49.543Z,6.38
2023-05-20T14:38:19.283Z,6.28
2023-05-20T14:40:47.821Z,6.40
2023-05-20T14:43:16.722Z,6.50
2023-05-20T14:45:47.119Z,6.50
2023-05-20T14:48:15.754Z,6.28
2023-05-20T14:50:47.589Z,6.30
2023-05-20T14:53:19.725Z,6.40
2023-05-20T14:55:48.586Z,8.00
2023-05-20T14:58:17.326Z,6.65
2023-05-20T15:00:45.685Z,6.93
2023-05-20T15:03:14.242Z,6.20
2023-05-20T15:05:42.709Z,6.68
2023-05-20T15:08:12.646Z,7.13
2023-05-20T15:10:41.738Z,5.63
2023-05-20T15:13:10.465Z,6.10
2023-05-20T15:15:38.904Z,5.10
2023-05-20T15:18:07.484Z,6.47
2023-05-20T15:20:36.160Z,5.78
2023-05-20T15:23:05.234Z,5.57
2023-05-20T15:25:35.490Z,5.32
2023-05-20T15:28:04.100Z,5.20
2023-05-20T15:30:32.702Z,4.90
2023-05-20T15:33:01.828Z,4.80
2023-05-20T15:35:30.443Z,4.97
2023-05-20T15:37:59.307Z,4.88
2023-05-20T15:40:28.358Z,5.40
2023-05-20T15:42:58.662Z,5.30
2023-05-20T15:45:27.164Z,5.65
2023-05-20T15:47:55.774Z,5.13
2023-05-20T15:50:24.680Z,4.93
2023-05-20T15:52:54.166Z,5.45
2023-05-20T15:55:23.469Z,5.22
2023-05-20T15:57:52.192Z,5.47
2023-05-20T16:00:22.234Z,5.18
2023-05-20T16:02:50.949Z,4.75
2023-05-20T16:05:19.423Z,4.70
2023-05-20T16:07:48.427Z,5.22
2023-05-20T16:10:16.658Z,5.25
2023-05-20T16:12:45.167Z,4.93
2023-05-20T16:15:13.860Z,5.03
2023-05-20T16:17:44.122Z,4.80
2023-05-20T16:20:13.049Z,4.85
2023-05-20T16:22:41.826Z,5.35
2023-05-20T16:25:11.322Z,4.40
2023-05-20T16:27:40.079Z,4.65
2023-05-20T16:30:09.899Z,4.40
2023-05-20T16:32:38.394Z,4.70
2023-05-20T16:35:10.326Z,4.15
2023-05-20T16:37:39.682Z,4.32
2023-05-20T16:40:09.751Z,4.82
2023-05-20T16:42:39.720Z,4.68
2023-05-20T16:45:09.864Z,4.72
2023-05-20T16:47:38.576Z,4.20
2023-05-20T16:50:10.786Z,5.00
2023-05-20T16:52:39.396Z,4.53
2023-05-20T16:55:08.860Z,4.68
2023-05-20T16:57:37.846Z,4.75
2023-05-20T17:00:09.810Z,5.13
2023-05-20T17:02:38.380Z,5.22
2023-05-20T17:05:09.522Z,4.72
2023-05-20T17:07:38.750Z,5.18
2023-05-20T17:10:08.016Z,5.53
2023-05-20T17:12:36.807Z,5.00
2023-05-20T17:15:06.398Z,5.55
2023-05-20T17:17:34.975Z,5.05
2023-05-20T17:20:04.003Z,5.20
2023-05-20T17:22:33.897Z,5.90
2023-05-20T17:25:02.325Z,5.30
2023-05-20T17:27:30.766Z,5.13
2023-05-20T17:30:00.018Z,5.38
2023-05-20T17:32:28.437Z,5.90
2023-05-20T17:34:56.913Z,6.18
2023-05-20T17:37:25.356Z,5.80
2023-05-20T17:39:55.907Z,6.82
2023-05-20T17:42:24.303Z,8.40
2023-05-20T17:44:52.874Z,8.30
2023-05-20T17:47:21.604Z,8.95
2023-05-20T17:49:50.003Z,11.38
2023-05-20T17:52:18.388Z,13.27
2023-05-20T17:54:46.726Z,13.50
2023-05-20T17:57:16.785Z,13.77
2023-05-20T17:59:45.739Z,12.98
2023-05-20T18:02:14.307Z,13.15
2023-05-20T18:04:42.780Z,14.75
2023-05-20T18:07:11.288Z,13.88
2023-05-20T18:09:39.829Z,14.25
2023-05-20T18:12:09.625Z,14.43
2023-05-20T18:14:39.844Z,14.27
2023-05-20T18:17:08.422Z,14.43
2023-05-20T18:19:37.063Z,13.50
2023-05-20T18:22:07.431Z,12.75
2023-05-20T18:24:36.239Z,12.85
2023-05-20T18:27:04.865Z,14.18
2023-05-20T18:29:33.437Z,14.60
2023-05-20T18:32:03.372Z,14.93
2023-05-20T18:34:33.465Z,15.07
2023-05-20T18:37:02.097Z,17.33
2023-05-20T18:39:30.930Z,16.58
2023-05-20T18:41:59.441Z,16.08
2023-05-20T18:44:27.697Z,16.08
2023-05-20T18:46:56.436Z,16.05
2023-05-20T18:49:26.398Z,17.30
2023-05-20T18:51:55.118Z,16.75
2023-05-20T18:54:23.577Z,18.10
2023-05-20T18:56:52.881Z,17.25
2023-05-20T18:59:23.306Z,17.50
2023-05-20T19:01:53.452Z,18.17
2023-05-20T19:04:21.842Z,17.42
2023-05-20T19:06:53.141Z,16.70
2023-05-20T19:09:21.816Z,17.70
2023-05-20T19:11:52.427Z,17.58
2023-05-20T19:14:21.307Z,17.95
2023-05-20T19:16:50.032Z,19.40
2023-05-20T19:19:18.703Z,21.27
2023-05-20T19:21:47.098Z,22.10
2023-05-20T19:24:17.910Z,22.23
2023-05-20T19:26:47.096Z,21.00
2023-05-20T19:29:15.791Z,20.70
2023-05-20T19:31:44.461Z,20.20
2023-05-20T19:34:13.002Z,20.42
2023-05-20T19:36:43.163Z,20.77
2023-05-20T19:39:12.215Z,21.52
2023-05-20T19:41:42.779Z,20.85
2023-05-20T19:44:12.165Z,21.23
2023-05-20T19:46:40.886Z,22.02
2023-05-20T19:49:10.493Z,20.80
2023-05-20T19:51:38.978Z,20.90
2023-05-20T19:54:07.624Z,21.02
2023-05-20T19:56:36.019Z,21.08
2023-05-20T19:59:06.685Z,21.23
2023-05-20T20:01:35.205Z,22.27
2023-05-20T20:04:03.919Z,22.05
2023-05-20T20:06:32.662Z,21.42
2023-05-20T20:09:01.521Z,21.80
2023-05-20T20:11:29.923Z,21.33
2023-05-20T20:13:58.835Z,22.00
2023-05-20T20:16:29.421Z,22.33
2023-05-20T20:18:58.006Z,23.23
2023-05-20T20:21:27.038Z,23.13
2023-05-20T20:23:55.533Z,22.77
2023-05-20T20:26:26.208Z,22.80
2023-05-20T20:28:54.997Z,22.25
2023-05-20T20:31:26.844Z,22.30
2023-05-20T20:33:56.912Z,21.95
2023-05-20T20:36:25.940Z,22.42
2023-05-20T20:38:54.535Z,23.23
2023-05-20T20:41:23.210Z,23.00
2023-05-20T20:43:51.603Z,23.90
2023-05-20T20:46:20.435Z,23.00
2023-05-20T20:48:48.750Z,22.63
2023-05-20T20:51:19.061Z,24.13
2023-05-20T20:53:49.103Z,24.00
2023-05-20T20:56:17.845Z,24.02
2023-05-20T20:58:46.538Z,24.42
2023-05-20T21:01:18.118Z,23.55
2023-05-20T21:03:48.835Z,24.23
2023-05-20T21:06:19.255Z,25.27
2023-05-20T21:08:48.126Z,24.25
2023-05-20T21:11:17.969Z,23.85
2023-05-20T21:13:46.632Z,24.15
2023-05-20T21:16:15.011Z,24.80
2023-05-20T21:18:43.468Z,24.63
2023-05-20T21:21:14.259Z,24.25
2023-05-20T21:23:44.184Z,24.98
2023-05-20T21:26:12.775Z,24.88
2023-05-20T21:28:41.214Z,24.10
2023-05-20T21:31:09.767Z,24.73
2023-05-20T21:33:38.270Z,23.85
2023-05-20T21:36:07.255Z,24.88
2023-05-20T21:38:35.851Z,25.58
2023-05-20T21:41:05.852Z,26.35
2023-05-20T21:43:36.261Z,26.38
2023-05-20T21:46:06.049Z,27.05
2023-05-20T21:48:34.538Z,27.13
2023-05-20T21:51:03.023Z,28.02
2023-05-20T21:53:31.703Z,28.05
2023-05-20T21:56:00.292Z,27.45
2023-05-20T21:58:30.185Z,27.77
2023-05-20T22:00:58.949Z,27.27
2023-05-20T22:03:27.491Z,27.52
2023-05-20T22:05:56.517Z,28.63
2023-05-20T22:08:26.801Z,29.20
2023-05-20T22:10:55.682Z,29.17
2023-05-20T22:13:26.616Z,28.75
2023-05-20T22:15:57.367Z,28.55
2023-05-20T22:18:26.896Z,28.08
2023-05-20T22:20:56.792Z,28.98
2023-05-20T22:23:25.667Z,27.95
2023-05-20T22:25:55.139Z,28.02
2023-05-20T22:28:23.970Z,27.88
2023-05-20T22:30:53.031Z,27.13
2023-05-20T22:33:24.549Z,28.35
2023-05-20T22:35:53.858Z,28.90
2023-05-20T22:38:22.385Z,28.92
2023-05-20T22:40:51.081Z,29.10
2023-05-20T22:43:23.351Z,30.27
2023-05-20T22:45:52.028Z,29.52
2023-05-20T22:48:23.300Z,30.45
2023-05-20T22:50:54.244Z,29.85
2023-05-20T22:53:22.886Z,30.73
2023-05-20T22:55:51.249Z,29.88
2023-05-20T22:58:19.551Z,31.23
2023-05-20T23:00:48.288Z,30.52
2023-05-20T23:03:16.795Z,30.92
2023-05-20T23:05:45.506Z,30.13
2023-05-20T23:08:15.343Z,31.13
2023-05-20T23:10:43.793Z,31.70
2023-05-20T23:13:12.415Z,31.40
2023-05-20T23:15:41.244Z,32.20
2023-05-20T23:18:09.869Z,31.00
2023-05-20T23:20:38.391Z,32.42
2023-05-20T23:23:11.247Z,31.42
2023-05-20T23:25:43.570Z,31.63
2023-05-20T23:28:13.583Z,31.67
2023-05-20T23:30:41.920Z,32.15
2023-05-20T23:33:10.763Z,32.30
2023-05-20T23:35:40.652Z,32.55
2023-05-20T23:38:09.229Z,31.58
2023-05-20T23:40:37.973Z,31.20
2023-05-20T23:43:08.099Z,32.55
2023-05-20T23:45:36.776Z,33.45
2023-05-20T23:48:05.858Z,32.33
2023-05-20T23:50:34.245Z,33.58
2023-05-20T23:53:02.752Z,32.83
2023-05-20T23:55:32.301Z,33.03
2023-05-20T23:58:00.947Z,32.88
